Rakitna Rakitna

Učna pot


Verjetnost toče več informacij Hail probability


Moja kamera več informacij My webcam


Cestna kamera več informacij Road camera


ARSO, spremljajte nas več informacij


Obiščite še:

Template documentacija
in prenos

in še drugo stran



Dež Od: 03-08-2020 13:00 Do: 04-08-2020 09:59 Opozorilo za: Dež Stopnja: Oranžna info button
Nevihte Od: 04-08-2020 09:00 Do: 22:59 Opozorilo za: Nevihte Stopnja: Rumena info button

METAR v bližini

   
LJLJ - Ljubljana
Posodobljeno: 04-08-2020 04:30
megla, oblačno  
megla, oblačno  
   Veter: JJV 7.4 km/h
Veter: JJV 7.4 km/h
Temperatura: 16°C
Točka rosišča: 16°C
Vlažnost: 100%
Zračni tlak: 1005 hPa
Oblaki: oblačno
Vidljivost: 1 km
Podrobnosti o oblakih: oblačno 200 ft
LJLJ 040230Z 15004KT 100V190 0900 R30/1700U FG VV002 16/16 Q1005 NOSIG
LJCE - Cerklje ob Krki
Posodobljeno: 04-08-2020 04:30
oblačno  
oblačno  
   Veter: različen 1.9 km/h
Veter: različen 1.9 km/h
Temperatura: 18°C
Točka rosišča: 17°C
Vlažnost: 94%
Zračni tlak: 1004 hPa
Oblaki: oblačno
Vidljivost: več kot 10 km
Podrobnosti o oblakih: oblačno 600 ft
LJCE 040230Z AUTO VRB01KT 9999 OVC006/// 18/17 Q1004
LJMB - Maribor
Posodobljeno: 04-08-2020 04:30
meglica, oblačno  
meglica, oblačno  
   Veter: različen 1.9 km/h
Veter: različen 1.9 km/h
Temperatura: 17°C
Točka rosišča: 16°C
Vlažnost: 94%
Zračni tlak: 1005 hPa
Oblaki: oblačno
Vidljivost: 5 km
Podrobnosti o oblakih: oblačno 200 ft
LJMB 040230Z AUTO VRB01KT 4700 BR OVC002/// 17/16 Q1005
LJPZ - Portorož
Posodobljeno: 04-08-2020 04:30
jasno  
jasno  
   Veter: VJV 18.5 km/h
Veter: VJV 18.5 km/h
Temperatura: 18°C
Točka rosišča: 17°C
Vlažnost: 94%
Zračni tlak: 1002 hPa
Oblaki: jasno
Vidljivost: več kot 10 km
Podrobnosti o oblakih: jasno
LJPZ 040230Z AUTO 12010KT 9999 NCD 18/17 Q1002 RERA
LDRI - Rijeka, Airport, Croatia
Posodobljeno: 04-08-2020 04:30
delno oblačno  
delno oblačno  
   Veter: SSZ 7.4 km/h
Veter: SSZ 7.4 km/h
Temperatura: 19°C
Točka rosišča: 18°C
Vlažnost: 94%
Zračni tlak: 1003 hPa
Oblaki: delno oblačno
Vidljivost: več kot 10 km
Podrobnosti o oblakih: nekaj oblakov 3000 ft,
delno oblačno 4000 ft
LDRI 040230Z 34004KT 9999 FEW030 SCT040 19/18 Q1003
LOWK - Klagenfurt, Airport, Avstia
Posodobljeno: 04-08-2020 04:50
rosenje, dež, pretežno oblačno  
rosenje, dež, pretežno oblačno  
   Veter: VJV 5.6 km/h
Veter: VJV 5.6 km/h
Temperatura: 16°C
Točka rosišča: 15°C
Vlažnost: 94%
Zračni tlak: 1004 hPa
Oblaki: pretežno oblačno
Vidljivost: več kot 10 km
Podrobnosti o oblakih: nekaj oblakov 2000 ft,
pretežno oblačno 10000 ft
LOWK 040250Z AUTO 12003KT 060V190 9999 -SHRA FEW020 BKN100 16/15 Q1004

Script developed by  Saratoga-weather.org Adapted for the template by  Weerstation Leuven

Vremenski podatki so objavljeni na:

Slovenska vremenska mreža

WeatherlinkIP

MapView

Geostik

Oprema, ki se uporablja:

Vremenska postaja
Davis VP2+ ventilirana

Vremenski program
WeatherLink

Vremenski server
Shuttle XS35V4

Ponudnik
Vremensko društvo ZEVS

Davis VP2+ ventilirana

WeatherLink

Shuttle XS35V4

Vremensko društvo ZEVS

Meteorološki podatki vremenske postaje Rakitna so neuradni, meteorološka postaja sama pa ni del državne mreže Agencije Republike Slovenije za okolje (ARSO),
je pa vključena v Vremensko društvo ZEVS. Prikazani podatki so izmerjeni točno, vendar so zgolj informativni in nimajo značaja uradnega podatka.

Podatke meri vremenska postaja "Davis VP2+ ventilirana" od 05.03.2011 dalje.

Opozarjamo, da ne prevzamemo odgovornosti za morebitno nastalo škodo, ki bi nastala zaradi odločitve, sprejete na osnovi teh podatkov!